Time;durP1;ratioP1;P1;durP2;ratioP2;P2;SDS_P1;SDS_P2;PMS_P1;PMS_P2;Temp;Humidity;BMP_temperature;BMP_pressure;BME280_temperature;BME280_humidity;BME280_pressure;Samples;Min_cycle;Max_cycle;Signal;HPM_P1;HPM_P2
2022/09/22 00:01:29;;;;;;;2.22;0.40;;;7.60;99.90;;;;;;5106007;28;20440;-58
2022/09/22 00:03:57;;;;;;;1.98;0.75;;;7.60;99.90;;;;;;5091325;28;20043;-59
2022/09/22 00:06:25;;;;;;;2.55;1.10;;;7.50;99.90;;;;;;5094515;28;20036;-56
2022/09/22 00:08:59;;;;;;;2.58;2.30;;;7.60;99.90;;;;;;5111503;28;20307;-58
2022/09/22 00:11:46;;;;;;;4.13;1.95;;;7.60;99.90;;;;;;5109306;28;20511;-57
2022/09/22 00:14:17;;;;;;;3.40;2.20;;;7.70;99.90;;;;;;5090355;28;20048;-59
2022/09/22 00:16:51;;;;;;;7.57;2.50;;;7.70;99.90;;;;;;5094984;28;20400;-57
2022/09/22 00:19:22;;;;;;;3.58;2.50;;;7.80;99.90;;;;;;5111220;28;20047;-55
2022/09/22 00:21:48;;;;;;;5.45;3.83;;;7.80;99.90;;;;;;5078496;28;20611;-59
2022/09/22 00:24:15;;;;;;;5.05;2.33;;;7.80;99.90;;;;;;5090813;28;20067;-57
2022/09/22 00:26:41;;;;;;;3.20;2.35;;;7.90;99.90;;;;;;5091964;28;20438;-59
2022/09/22 00:29:08;;;;;;;2.17;1.97;;;7.80;99.90;;;;;;5089548;28;20040;-58
2022/09/22 00:31:36;;;;;;;6.75;2.45;;;7.80;99.90;;;;;;5091458;28;20411;-56
2022/09/22 00:34:02;;;;;;;4.97;3.10;;;7.70;99.90;;;;;;5108368;28;20122;-57
2022/09/22 00:36:28;;;;;;;6.70;2.47;;;7.70;99.90;;;;;;5109884;28;20035;-57
2022/09/22 00:38:57;;;;;;;2.75;2.45;;;7.80;99.90;;;;;;5096570;28;20043;-58
2022/09/22 00:41:29;;;;;;;2.67;1.60;;;7.80;99.90;;;;;;5090064;28;20046;-57
2022/09/22 00:44:25;;;;;;;1.95;1.60;;;7.70;99.90;;;;;;5098797;28;20111;-56
2022/09/22 00:47:16;;;;;;;4.78;1.73;;;7.60;99.90;;;;;;5071604;28;20078;-57
2022/09/22 00:49:50;;;;;;;2.55;1.48;;;7.50;99.90;;;;;;5082773;28;20093;-57
2022/09/22 00:52:23;;;;;;;2.10;1.75;;;7.50;99.90;;;;;;5090341;28;20040;-57
2022/09/22 00:54:52;;;;;;;5.72;2.22;;;7.40;99.90;;;;;;5070899;28;20093;-57
2022/09/22 00:57:22;;;;;;;4.97;2.75;;;7.40;99.90;;;;;;5089403;28;20036;-58
2022/09/22 00:59:50;;;;;;;7.00;3.15;;;7.40;99.90;;;;;;5108727;28;20046;-58
2022/09/22 01:02:16;;;;;;;2.55;2.28;;;7.30;99.90;;;;;;5094825;28;20035;-57
2022/09/22 01:04:43;;;;;;;4.95;3.08;;;7.30;99.90;;;;;;5108087;28;20040;-57
2022/09/22 01:07:09;;;;;;;5.03;1.70;;;7.30;99.90;;;;;;5110399;28;20047;-57
2022/09/22 01:09:35;;;;;;;6.13;2.70;;;7.20;99.90;;;;;;5093487;28;20408;-56
2022/09/22 01:12:02;;;;;;;4.33;2.23;;;7.20;99.90;;;;;;5090199;28;20044;-57
2022/09/22 01:14:34;;;;;;;3.55;2.15;;;7.10;99.90;;;;;;5090113;28;20817;-57
2022/09/22 01:17:24;;;;;;;2.63;2.35;;;7.10;99.90;;;;;;5090215;28;20036;-57
2022/09/22 01:20:22;;;;;;;4.22;2.95;;;7.10;99.90;;;;;;5107752;28;20039;-57
2022/09/22 01:23:25;;;;;;;3.00;2.13;;;7.10;99.90;;;;;;5110366;28;20035;-58
2022/09/22 01:25:59;;;;;;;5.68;2.30;;;7.20;99.90;;;;;;5082823;28;20128;-56
2022/09/22 01:29:02;;;;;;;4.50;2.20;;;7.20;99.90;;;;;;5091702;28;20111;-56
2022/09/22 01:31:49;;;;;;;7.75;3.42;;;7.20;99.90;;;;;;5096402;28;20724;-56
2022/09/22 01:34:25;;;;;;;4.87;3.70;;;7.20;99.90;;;;;;5096630;28;20040;-57
2022/09/22 01:37:04;;;;;;;4.53;3.33;;;7.20;99.90;;;;;;5087062;28;20036;-58
2022/09/22 01:40:01;;;;;;;6.32;3.38;;;7.10;99.90;;;;;;5091411;28;20059;-55
2022/09/22 01:42:34;;;;;;;3.63;2.92;;;7.00;99.90;;;;;;5085488;28;20079;-56
2022/09/22 01:45:09;;;;;;;6.50;3.33;;;7.00;99.90;;;;;;5105763;28;20047;-56
2022/09/22 01:47:41;;;;;;;3.38;3.08;;;6.90;99.90;;;;;;5110380;28;20064;-57
2022/09/22 01:50:15;;;;;;;5.55;4.10;;;7.00;99.90;;;;;;5100389;28;20036;-57
2022/09/22 01:52:41;;;;;;;8.30;3.65;;;7.00;99.90;;;;;;5089885;28;20044;-56
2022/09/22 01:55:12;;;;;;;5.93;3.47;;;7.00;99.90;;;;;;5104626;28;20031;-55
2022/09/22 01:57:52;;;;;;;9.10;3.60;;;7.00;99.90;;;;;;5110138;28;20172;-57
2022/09/22 02:00:19;;;;;;;4.03;3.63;;;6.90;99.90;;;;;;5090618;28;20053;-58
2022/09/22 02:02:59;;;;;;;7.25;4.15;;;6.90;99.90;;;;;;5089796;28;20040;-56
2022/09/22 02:05:31;;;;;;;6.68;4.93;;;6.90;99.90;;;;;;5072964;28;20045;-57
2022/09/22 02:08:01;;;;;;;3.38;3.08;;;6.90;99.90;;;;;;5072747;28;20040;-57
2022/09/22 02:10:34;;;;;;;7.18;3.60;;;6.80;99.90;;;;;;5082416;28;20033;-58
2022/09/22 02:13:00;;;;;;;5.20;3.92;;;6.80;99.90;;;;;;5080254;28;20044;-54
2022/09/22 02:18:25;;;;;;;5.28;4.78;;;6.80;99.90;;;;;;5092197;28;20044;-57
2022/09/22 02:20:51;;;;;;;9.90;5.07;;;6.80;99.90;;;;;;5112851;28;20035;-58
2022/09/22 02:23:17;;;;;;;7.07;4.55;;;6.80;99.90;;;;;;5113759;28;20400;-58
2022/09/22 02:25:44;;;;;;;8.10;4.23;;;6.80;99.90;;;;;;5095653;28;20040;-56
2022/09/22 02:28:13;;;;;;;6.13;4.78;;;6.80;99.90;;;;;;5093135;28;20443;-57
2022/09/22 02:30:40;;;;;;;5.10;3.50;;;6.70;99.90;;;;;;5106554;28;20392;-57
2022/09/22 02:33:07;;;;;;;5.45;3.88;;;6.80;99.90;;;;;;5092866;28;20040;-57
2022/09/22 02:35:36;;;;;;;3.83;3.35;;;6.80;99.90;;;;;;5107841;28;20040;-57
2022/09/22 02:38:20;;;;;;;3.65;3.35;;;6.90;99.90;;;;;;5113399;28;20044;-58
2022/09/22 02:40:49;;;;;;;3.03;2.50;;;6.90;99.90;;;;;;5097371;28;20123;-58
2022/09/22 02:43:42;;;;;;;2.10;1.90;;;6.90;99.90;;;;;;5093391;28;20091;-55
2022/09/22 02:46:24;;;;;;;1.73;1.63;;;6.90;99.90;;;;;;5104817;28;20469;-55
2022/09/22 02:48:55;;;;;;;2.60;2.40;;;6.80;99.90;;;;;;5113102;28;20036;-58
2022/09/22 02:51:21;;;;;;;3.08;1.83;;;6.80;99.90;;;;;;5093775;28;20039;-56
2022/09/22 02:53:47;;;;;;;1.60;1.50;;;6.70;99.90;;;;;;5107298;28;20083;-56
2022/09/22 02:56:12;;;;;;;1.58;1.40;;;6.70;99.90;;;;;;5096131;28;20136;-57
2022/09/22 02:58:38;;;;;;;1.77;1.67;;;6.70;99.90;;;;;;5092617;28;20036;-55
2022/09/22 03:01:03;;;;;;;3.30;3.00;;;6.60;99.90;;;;;;5106737;28;20040;-55
2022/09/22 03:03:29;;;;;;;89.28;8.68;;;6.60;99.90;;;;;;5111706;28;20036;-57
2022/09/22 03:05:54;;;;;;;109.30;10.10;;;6.60;99.90;;;;;;5099026;28;20036;-58
2022/09/22 03:08:20;;;;;;;4.43;3.27;;;6.50;99.90;;;;;;5092562;28;20069;-57
2022/09/22 03:10:46;;;;;;;2.53;2.42;;;6.40;99.90;;;;;;5104036;28;20039;-55
2022/09/22 03:13:11;;;;;;;6.17;3.83;;;6.40;99.90;;;;;;5101784;28;20134;-57
2022/09/22 03:15:37;;;;;;;4.23;3.27;;;6.40;99.90;;;;;;5085469;28;20116;-56
2022/09/22 03:18:03;;;;;;;3.73;3.43;;;6.40;99.90;;;;;;5072161;28;20505;-57
2022/09/22 03:20:28;;;;;;;4.28;3.67;;;6.40;99.90;;;;;;5089726;28;20042;-55
2022/09/22 03:22:54;;;;;;;7.97;4.27;;;6.40;99.90;;;;;;5093637;28;20115;-58
2022/09/22 03:25:19;;;;;;;4.00;3.60;;;6.40;99.90;;;;;;5103006;28;20409;-58
2022/09/22 03:27:46;;;;;;;4.65;4.25;;;6.30;99.90;;;;;;5092105;28;20047;-58
2022/09/22 03:30:12;;;;;;;5.38;3.53;;;6.30;99.90;;;;;;5096431;28;20035;-58
2022/09/22 03:32:38;;;;;;;4.60;3.33;;;6.30;99.90;;;;;;5112309;28;20074;-58
2022/09/22 03:35:05;;;;;;;2.77;2.50;;;6.30;99.90;;;;;;5107725;28;20728;-58
2022/09/22 03:37:31;;;;;;;3.85;2.53;;;6.30;99.90;;;;;;5091761;28;20040;-57
2022/09/22 03:39:57;;;;;;;;;;;6.30;99.90;;;;;;5093317;28;20040;-58
2022/09/22 03:42:22;;;;;;;2.13;1.90;;;6.30;99.90;;;;;;5112020;28;19923;-56
2022/09/22 03:44:48;;;;;;;2.73;2.53;;;6.30;99.90;;;;;;5110147;28;20070;-58
2022/09/22 03:47:14;;;;;;;2.73;2.53;;;6.30;99.90;;;;;;5092436;28;20032;-58
2022/09/22 03:49:39;;;;;;;4.73;1.97;;;6.30;99.90;;;;;;5091355;28;20109;-58
2022/09/22 03:52:05;;;;;;;7.87;2.33;;;6.30;99.90;;;;;;5092937;28;20093;-58
2022/09/22 03:54:31;;;;;;;4.57;3.37;;;6.30;99.90;;;;;;5091190;28;20036;-57
2022/09/22 03:56:57;;;;;;;8.52;5.65;;;6.30;99.90;;;;;;5092802;28;20024;-57
2022/09/22 03:59:23;;;;;;;3.95;3.10;;;6.30;99.90;;;;;;5091495;28;20115;-55
2022/09/22 04:01:48;;;;;;;6.68;3.47;;;6.40;99.90;;;;;;5105822;28;20049;-58
2022/09/22 04:04:14;;;;;;;8.50;4.00;;;6.30;99.90;;;;;;5111183;28;20457;-57
2022/09/22 04:06:40;;;;;;;4.80;3.80;;;6.30;99.90;;;;;;5110406;27;20464;-56
2022/09/22 04:09:06;;;;;;;5.65;4.60;;;6.30;99.90;;;;;;5110585;28;20127;-57
2022/09/22 04:11:31;;;;;;;3.63;3.43;;;6.30;99.90;;;;;;5100782;28;20123;-57
2022/09/22 04:13:58;;;;;;;14.65;5.38;;;6.30;99.90;;;;;;5090889;28;20032;-57
2022/09/22 04:16:24;;;;;;;3.65;3.33;;;6.30;99.90;;;;;;5092101;28;20031;-57
2022/09/22 04:18:49;;;;;;;3.17;2.97;;;6.30;99.90;;;;;;5090944;28;20024;-56
2022/09/22 04:21:15;;;;;;;3.40;3.10;;;6.30;99.90;;;;;;5099028;28;20036;-58
2022/09/22 04:23:40;;;;;;;4.03;3.73;;;6.30;99.90;;;;;;5088782;28;20481;-56
2022/09/22 04:26:06;;;;;;;5.80;5.03;;;6.30;99.90;;;;;;5079814;28;20489;-56
2022/09/22 04:28:32;;;;;;;3.77;3.47;;;6.30;99.90;;;;;;5095220;28;20062;-55
2022/09/22 04:30:58;;;;;;;4.07;3.77;;;6.20;99.90;;;;;;5085834;28;20392;-55
2022/09/22 04:33:24;;;;;;;4.00;3.17;;;6.20;99.90;;;;;;5110507;28;20270;-58
2022/09/22 04:35:50;;;;;;;5.00;3.38;;;6.10;99.90;;;;;;5084653;28;20044;-58
2022/09/22 04:38:17;;;;;;;3.92;2.92;;;6.10;99.90;;;;;;5086677;28;20040;-57
2022/09/22 04:40:43;;;;;;;3.13;2.92;;;6.00;99.90;;;;;;5079960;28;20032;-58
2022/09/22 04:43:09;;;;;;;;;;;6.00;99.90;;;;;;5090875;28;20054;-56
2022/09/22 04:45:35;;;;;;;4.03;3.35;;;5.90;99.90;;;;;;5095039;28;19915;-58
2022/09/22 04:48:00;;;;;;;3.70;3.50;;;5.90;99.90;;;;;;5107633;28;20036;-57
2022/09/22 04:50:27;;;;;;;3.20;3.00;;;5.90;99.90;;;;;;5110826;28;20051;-58
2022/09/22 04:52:55;;;;;;;9.27;5.50;;;5.90;99.90;;;;;;5101511;28;20044;-56
2022/09/22 04:55:22;;;;;;;6.20;5.43;;;5.90;99.90;;;;;;5110970;28;20039;-59
2022/09/22 04:57:49;;;;;;;5.07;4.75;;;5.80;99.90;;;;;;5109277;28;20039;-56
2022/09/22 05:00:15;;;;;;;66.82;7.93;;;5.90;99.90;;;;;;5110676;28;20031;-55
2022/09/22 05:02:41;;;;;;;;;;;5.80;99.90;;;;;;5095307;28;20032;-58
2022/09/22 05:05:07;;;;;;;14.98;5.32;;;5.80;99.90;;;;;;5096220;28;19916;-57
2022/09/22 05:07:32;;;;;;;4.93;4.30;;;5.70;99.90;;;;;;5103307;28;20031;-56
2022/09/22 05:09:58;;;;;;;5.20;4.70;;;5.70;99.90;;;;;;5110547;28;20450;-57
2022/09/22 05:12:25;;;;;;;4.50;4.13;;;5.60;99.90;;;;;;5099179;28;20032;-55
2022/09/22 05:14:51;;;;;;;3.78;3.45;;;5.60;99.90;;;;;;5093305;28;20320;-58
2022/09/22 05:17:17;;;;;;;3.80;3.60;;;5.60;99.90;;;;;;5100163;28;20040;-58
2022/09/22 05:19:42;;;;;;;3.65;2.25;;;5.50;99.90;;;;;;5090425;28;20036;-55
2022/09/22 05:22:08;;;;;;;2.10;2.00;;;5.50;99.90;;;;;;5097923;28;20126;-55
2022/09/22 05:24:34;;;;;;;2.70;1.73;;;5.50;99.90;;;;;;5100639;28;20039;-58
2022/09/22 05:27:00;;;;;;;4.93;4.33;;;5.50;99.90;;;;;;5098173;28;20040;-56
2022/09/22 05:29:26;;;;;;;3.03;2.83;;;5.50;99.90;;;;;;5096860;28;20497;-56
2022/09/22 05:31:52;;;;;;;5.10;3.90;;;5.50;99.90;;;;;;5096899;28;20097;-58
2022/09/22 05:34:17;;;;;;;4.80;3.83;;;5.50;99.90;;;;;;5101704;28;20036;-55
2022/09/22 05:36:43;;;;;;;2.67;2.47;;;5.50;99.90;;;;;;5087677;28;20062;-57
2022/09/22 05:39:08;;;;;;;2.60;2.40;;;5.50;99.90;;;;;;5090599;28;20400;-57
2022/09/22 05:41:34;;;;;;;5.10;2.50;;;5.60;99.90;;;;;;5091335;28;20112;-55
2022/09/22 05:44:00;;;;;;;2.63;2.33;;;5.60;99.90;;;;;;5071544;28;20068;-55
2022/09/22 05:46:25;;;;;;;4.95;4.57;;;5.70;99.90;;;;;;5073606;28;20044;-58
2022/09/22 05:48:51;;;;;;;4.20;3.87;;;5.80;99.90;;;;;;5100190;28;20036;-58
2022/09/22 05:51:16;;;;;;;12.40;3.40;;;5.90;99.90;;;;;;5094207;28;20048;-54
2022/09/22 05:53:42;;;;;;;3.73;3.43;;;6.00;99.90;;;;;;5097924;28;20094;-56
2022/09/22 05:56:07;;;;;;;7.83;4.97;;;6.10;99.90;;;;;;5096614;28;20528;-56
2022/09/22 05:58:33;;;;;;;5.30;4.30;;;6.20;99.90;;;;;;5091413;28;20035;-59
2022/09/22 06:00:58;;;;;;;5.03;4.17;;;6.30;99.90;;;;;;5093499;28;20036;-58
2022/09/22 06:03:24;;;;;;;3.70;3.23;;;6.50;99.90;;;;;;5086932;28;20029;-57
2022/09/22 06:05:50;;;;;;;3.15;2.88;;;6.70;99.90;;;;;;5073451;28;20040;-58
2022/09/22 06:08:16;;;;;;;4.03;2.53;;;6.90;99.90;;;;;;5074136;28;20119;-56
2022/09/22 06:10:44;;;;;;;2.85;2.65;;;7.20;99.90;;;;;;5088782;28;20032;-57
2022/09/22 06:13:10;;;;;;;3.33;3.10;;;7.50;99.90;;;;;;5096661;28;20039;-58
2022/09/22 06:15:37;;;;;;;3.90;3.60;;;7.80;99.90;;;;;;5089788;28;20036;-56
2022/09/22 06:18:06;;;;;;;3.90;3.60;;;8.20;99.90;;;;;;5073700;28;20145;-57
2022/09/22 06:20:35;;;;;;;5.35;3.35;;;8.50;99.90;;;;;;5078298;28;20058;-58
2022/09/22 06:23:00;;;;;;;6.63;4.07;;;8.90;99.90;;;;;;5092955;28;20028;-58
2022/09/22 06:25:29;;;;;;;10.27;6.57;;;9.20;99.90;;;;;;5092103;28;20427;-58
2022/09/22 06:28:05;;;;;;;8.30;5.57;;;9.60;99.90;;;;;;5091532;28;20055;-56
2022/09/22 06:30:35;;;;;;;11.40;6.43;;;9.90;99.90;;;;;;5090284;28;20536;-56
2022/09/22 06:33:01;;;;;;;6.97;6.32;;;10.00;99.90;;;;;;5081019;28;20048;-56
2022/09/22 06:35:35;;;;;;;;;;;9.90;99.90;;;;;;5083598;28;20370;-57
2022/09/22 06:38:00;;;;;;;7.85;6.43;;;9.90;99.90;;;;;;5098431;28;19915;-56
2022/09/22 06:40:26;;;;;;;8.70;6.83;;;9.90;99.90;;;;;;5080732;28;20047;-59
2022/09/22 06:43:06;;;;;;;8.05;7.07;;;9.90;99.90;;;;;;5072830;28;20036;-59
2022/09/22 06:45:32;;;;;;;6.78;6.18;;;9.80;99.90;;;;;;5075954;28;20037;-58
2022/09/22 06:47:59;;;;;;;53.28;11.48;;;9.80;99.90;;;;;;5071535;28;20044;-58
2022/09/22 06:50:31;;;;;;;11.75;8.23;;;9.80;99.90;;;;;;5076268;28;20051;-57
2022/09/22 06:53:03;;;;;;;12.07;6.97;;;9.80;99.90;;;;;;5075057;28;20052;-58
2022/09/22 06:55:29;;;;;;;15.55;7.35;;;9.80;99.90;;;;;;5072094;28;20127;-57
2022/09/22 06:58:00;;;;;;;27.48;8.38;;;9.70;99.90;;;;;;5071282;28;20403;-58
2022/09/22 07:00:30;;;;;;;16.55;7.80;;;9.70;99.90;;;;;;5071180;28;20041;-59
2022/09/22 07:03:12;;;;;;;8.63;7.82;;;9.80;99.90;;;;;;5077765;28;20045;-58
2022/09/22 07:05:37;;;;;;;12.00;8.10;;;9.80;99.90;;;;;;5073833;28;20297;-59
2022/09/22 07:08:03;;;;;;;6.82;6.20;;;9.80;99.90;;;;;;5077101;28;20036;-58
2022/09/22 07:10:30;;;;;;;5.55;5.25;;;9.90;99.90;;;;;;5072686;28;20036;-55
2022/09/22 07:12:59;;;;;;;6.45;5.45;;;10.00;99.90;;;;;;5071745;28;20446;-58
2022/09/22 07:15:25;;;;;;;6.93;6.15;;;10.10;99.90;;;;;;5077619;28;20064;-57
2022/09/22 07:17:52;;;;;;;11.50;6.90;;;10.30;99.90;;;;;;5077325;28;20090;-59
2022/09/22 07:20:19;;;;;;;10.95;7.03;;;10.40;99.90;;;;;;5074783;28;20040;-56
2022/09/22 07:22:45;;;;;;;13.07;7.05;;;10.50;99.90;;;;;;5082617;28;20374;-58
2022/09/22 07:25:11;;;;;;;8.45;7.13;;;10.60;99.90;;;;;;5076548;28;20170;-58
2022/09/22 07:27:36;;;;;;;11.52;7.35;;;10.70;99.90;;;;;;5070977;28;20089;-58
2022/09/22 07:30:02;;;;;;;9.18;5.90;;;10.80;99.90;;;;;;5079261;28;20139;-57
2022/09/22 07:32:33;;;;;;;12.80;8.00;;;10.90;99.90;;;;;;5073096;28;20044;-58
2022/09/22 07:35:00;;;;;;;11.23;7.40;;;11.00;99.90;;;;;;5081662;28;20043;-57
2022/09/22 07:37:28;;;;;;;11.13;7.28;;;11.10;99.90;;;;;;5074978;28;20116;-58
2022/09/22 07:39:54;;;;;;;8.25;6.40;;;11.30;99.90;;;;;;5077038;28;20516;-58
2022/09/22 07:42:20;;;;;;;10.93;7.45;;;11.40;99.90;;;;;;5080863;28;20518;-57
2022/09/22 07:50:16;;;;;;;11.55;7.40;;;11.70;99.90;;;;;;5079405;28;20463;-58
2022/09/22 07:52:42;;;;;;;14.05;8.48;;;11.80;99.90;;;;;;5072824;28;20036;-58
2022/09/22 07:55:08;;;;;;;12.27;7.32;;;11.90;99.90;;;;;;5093154;28;20473;-59
2022/09/22 07:57:33;;;;;;;13.93;7.03;;;12.00;99.90;;;;;;5091637;28;20168;-58
2022/09/22 07:59:59;;;;;;;12.10;7.47;;;12.10;99.90;;;;;;5083675;28;20033;-58
2022/09/22 08:02:26;;;;;;;9.30;7.30;;;12.20;99.90;;;;;;5101240;28;20345;-57
2022/09/22 08:04:51;;;;;;;11.70;7.40;;;12.30;99.90;;;;;;5088829;28;20344;-57
2022/09/22 08:07:17;;;;;;;8.63;7.27;;;12.40;99.90;;;;;;5103178;28;20556;-58
2022/09/22 08:09:43;;;;;;;9.07;7.47;;;12.50;99.90;;;;;;5111235;28;20077;-58
2022/09/22 08:12:09;;;;;;;8.60;6.67;;;12.60;99.90;;;;;;5106623;28;20285;-59
2022/09/22 08:14:34;;;;;;;;;;;12.80;99.90;;;;;;5091221;28;20117;-58
2022/09/22 08:17:00;;;;;;;7.10;6.32;;;12.90;99.90;;;;;;5094424;28;20404;-58
2022/09/22 08:19:25;;;;;;;7.00;5.97;;;13.00;99.90;;;;;;5087473;28;20044;-58
2022/09/22 08:21:55;;;;;;;9.10;5.72;;;13.10;99.90;;;;;;5070813;28;20037;-58
2022/09/22 08:24:21;;;;;;;8.20;5.60;;;13.20;99.90;;;;;;5084144;28;20046;-57
2022/09/22 08:26:49;;;;;;;6.90;5.28;;;13.30;99.90;;;;;;5087158;28;20040;-56
2022/09/22 08:29:14;;;;;;;8.45;5.15;;;13.40;99.90;;;;;;5081940;28;20082;-58
2022/09/22 08:31:41;;;;;;;8.27;5.57;;;13.60;99.90;;;;;;5070340;28;20072;-56
2022/09/22 08:34:08;;;;;;;7.97;4.75;;;13.60;99.90;;;;;;5069414;28;20033;-59
2022/09/22 08:36:34;;;;;;;11.95;5.63;;;13.80;99.90;;;;;;5094964;28;20523;-58
2022/09/22 08:39:01;;;;;;;6.18;5.07;;;13.90;99.90;;;;;;5096726;28;20036;-58
2022/09/22 08:41:26;;;;;;;8.35;4.78;;;14.00;99.90;;;;;;5095531;28;20027;-57
2022/09/22 08:44:07;;;;;;;5.40;4.47;;;14.10;99.90;;;;;;5110493;28;20111;-57
2022/09/22 08:46:36;;;;;;;9.77;5.00;;;14.20;99.90;;;;;;5081196;28;20039;-59
2022/09/22 08:52:27;;;;;;;6.70;4.28;;;14.50;99.90;;;;;;5079456;28;20445;-58
2022/09/22 08:54:55;;;;;;;;;;;14.60;99.90;;;;;;5069189;28;20493;-58
2022/09/22 08:58:12;;;;;;;7.22;4.00;;;14.80;99.90;;;;;;5084448;28;19984;-59
2022/09/22 09:00:45;;;;;;;6.45;3.90;;;14.90;99.90;;;;;;5067522;28;20048;-58
2022/09/22 09:03:34;;;;;;;8.88;4.32;;;15.00;99.90;;;;;;5056336;28;20092;-58
2022/09/22 09:06:24;;;;;;;9.68;4.45;;;15.10;99.90;;;;;;5053450;28;20037;-59
2022/09/22 09:09:18;;;;;;;6.13;4.20;;;15.20;99.90;;;;;;5053488;28;20041;-59
2022/09/22 09:12:02;;;;;;;7.28;3.88;;;15.30;99.90;;;;;;5036941;28;20048;-60
2022/09/22 09:14:46;;;;;;;8.32;4.30;;;15.50;99.90;;;;;;5047050;28;20168;-57
2022/09/22 09:17:18;;;;;;;11.73;3.92;;;15.60;99.90;;;;;;5045028;28;20079;-59
2022/09/22 09:19:49;;;;;;;3.67;2.72;;;15.70;99.90;;;;;;5047609;28;20363;-59
2022/09/22 09:22:27;;;;;;;7.03;4.35;;;15.80;99.40;;;;;;5052617;28;20136;-59
2022/09/22 09:25:04;;;;;;;7.15;3.85;;;15.90;99.00;;;;;;5067279;28;20115;-60
2022/09/22 09:27:45;;;;;;;8.98;2.67;;;16.00;99.00;;;;;;5066066;28;20037;-58
2022/09/22 09:30:16;;;;;;;3.50;2.53;;;16.00;98.30;;;;;;5051061;28;20049;-59
2022/09/22 09:32:59;;;;;;;9.02;2.95;;;16.10;98.00;;;;;;5058894;28;20041;-59
2022/09/22 09:35:51;;;;;;;5.78;2.58;;;16.20;98.00;;;;;;5053690;28;20048;-60
2022/09/22 09:38:22;;;;;;;5.18;2.58;;;16.20;97.20;;;;;;5085041;28;20108;-60
2022/09/22 09:40:54;;;;;;;6.78;2.55;;;16.30;97.10;;;;;;5090119;28;20046;-59
2022/09/22 09:43:22;;;;;;;5.55;2.30;;;16.30;97.10;;;;;;5102690;28;20361;-59
2022/09/22 09:46:10;;;;;;;4.57;1.63;;;16.40;96.90;;;;;;5110145;28;20047;-59
2022/09/22 09:49:05;;;;;;;4.32;1.67;;;16.50;95.90;;;;;;5107792;28;20043;-58
2022/09/22 09:51:34;;;;;;;3.25;1.65;;;16.50;95.70;;;;;;5080524;28;20477;-60
2022/09/22 09:54:04;;;;;;;7.63;1.65;;;16.60;95.90;;;;;;5082811;28;20040;-59
2022/09/22 09:56:31;;;;;;;4.45;1.58;;;16.70;96.20;;;;;;5072547;28;20043;-58
2022/09/22 10:01:45;;;;;;;3.58;1.70;;;16.90;95.90;;;;;;5077449;28;20036;-59
2022/09/22 10:04:18;;;;;;;3.08;0.90;;;17.00;95.10;;;;;;5068572;28;20025;-59
2022/09/22 10:06:45;;;;;;;3.75;1.00;;;17.00;94.40;;;;;;5074415;28;20048;-60
2022/09/22 10:09:21;;;;;;;5.20;1.13;;;17.00;94.80;;;;;;5074921;28;20044;-60
2022/09/22 10:11:59;;;;;;;4.73;0.90;;;17.10;94.00;;;;;;5075093;28;20059;-60
2022/09/22 10:14:29;;;;;;;3.08;1.20;;;17.20;94.50;;;;;;5099390;28;20039;-60
2022/09/22 10:16:54;;;;;;;7.60;0.98;;;17.30;94.00;;;;;;5104934;28;20103;-60
2022/09/22 10:19:21;;;;;;;1.67;0.57;;;17.30;93.50;;;;;;5092585;28;20476;-62
2022/09/22 10:21:47;;;;;;;4.28;1.00;;;17.40;93.00;;;;;;5089916;28;20048;-61
2022/09/22 10:24:30;;;;;;;3.65;0.75;;;17.40;92.80;;;;;;5087828;28;20173;-60
2022/09/22 10:26:56;;;;;;;2.38;0.63;;;17.40;91.80;;;;;;5092020;28;20114;-61
2022/09/22 10:29:23;;;;;;;5.13;0.50;;;17.50;92.30;;;;;;5103271;28;20157;-60
2022/09/22 10:32:04;;;;;;;2.85;1.02;;;17.60;92.50;;;;;;5089071;28;20123;-61
2022/09/22 10:34:45;;;;;;;4.03;1.23;;;17.60;91.50;;;;;;5084746;28;20077;-60
2022/09/22 10:37:14;;;;;;;6.65;1.38;;;17.70;91.80;;;;;;5093120;28;20122;-61
2022/09/22 10:39:50;;;;;;;3.30;1.45;;;17.70;91.90;;;;;;5095954;28;20032;-61
2022/09/22 10:42:40;;;;;;;4.53;0.93;;;17.80;91.70;;;;;;5092572;28;20066;-61
2022/09/22 10:45:14;;;;;;;5.60;0.93;;;17.80;91.10;;;;;;5093686;28;20032;-61
2022/09/22 10:47:53;;;;;;;4.88;1.30;;;18.00;90.80;;;;;;5092769;28;20036;-61
2022/09/22 10:50:37;;;;;;;3.58;1.70;;;18.00;90.40;;;;;;5103323;28;20043;-61
2022/09/22 10:53:34;;;;;;;5.05;1.33;;;18.10;90.10;;;;;;5098064;28;20031;-61
2022/09/22 10:56:04;;;;;;;5.28;1.30;;;18.20;89.70;;;;;;5111455;28;20049;-61
2022/09/22 10:58:47;;;;;;;6.85;1.80;;;18.30;90.70;;;;;;5104881;28;20031;-61
2022/09/22 11:01:50;;;;;;;3.83;2.00;;;18.30;89.30;;;;;;5093248;28;20043;-61
2022/09/22 11:04:34;;;;;;;5.68;2.25;;;18.20;89.60;;;;;;5106494;28;20046;-60
2022/09/22 11:14:05;;;;;;;4.20;1.77;;;18.00;88.80;;;;;;5098379;28;20054;-61
2022/09/22 11:16:39;;;;;;;7.90;2.20;;;18.20;89.70;;;;;;5109255;28;20039;-60
2022/09/22 11:19:14;;;;;;;8.32;2.58;;;18.30;90.20;;;;;;5101708;27;20040;-61
2022/09/22 11:22:10;;;;;;;2.45;2.15;;;18.40;90.50;;;;;;5090552;28;20489;-61
2022/09/22 11:24:53;;;;;;;6.90;2.30;;;18.60;90.10;;;;;;5100497;28;20043;-60
2022/09/22 11:27:50;;;;;;;6.55;2.63;;;18.70;88.80;;;;;;5110889;28;20043;-61
2022/09/22 11:30:20;;;;;;;4.35;1.98;;;18.80;88.10;;;;;;5093023;28;20043;-61
2022/09/22 11:33:18;;;;;;;3.75;1.48;;;18.90;88.50;;;;;;5089212;28;20054;-61
2022/09/22 11:36:01;;;;;;;2.55;1.80;;;19.00;86.50;;;;;;5072914;28;20068;-61
2022/09/22 11:38:43;;;;;;;3.78;1.63;;;19.10;85.40;;;;;;5091890;28;20068;-61
2022/09/22 11:41:25;;;;;;;5.95;1.92;;;19.10;83.80;;;;;;5111345;28;20036;-60
2022/09/22 11:44:13;;;;;;;3.65;1.77;;;19.10;84.80;;;;;;5097678;28;20133;-61
2022/09/22 11:47:08;;;;;;;4.80;1.58;;;18.90;84.80;;;;;;5077675;28;20578;-60
2022/09/22 11:50:11;;;;;;;2.92;1.73;;;18.80;82.30;;;;;;5098258;28;20044;-60
2022/09/22 11:52:45;;;;;;;4.85;2.05;;;18.70;83.80;;;;;;5088115;28;20043;-61
2022/09/22 11:55:17;;;;;;;5.32;1.73;;;18.60;83.40;;;;;;5083606;28;20488;-60
2022/09/22 11:57:49;;;;;;;6.10;2.72;;;18.60;84.00;;;;;;5080711;28;20044;-61
2022/09/22 12:00:18;;;;;;;2.88;1.85;;;18.70;85.30;;;;;;5098300;28;20032;-61
2022/09/22 12:02:53;;;;;;;6.93;1.63;;;18.60;85.00;;;;;;5111772;28;20039;-61
2022/09/22 12:05:40;;;;;;;7.03;1.73;;;18.70;84.10;;;;;;5085144;28;20048;-61
2022/09/22 12:08:21;;;;;;;5.15;2.22;;;18.80;83.00;;;;;;5073154;28;20044;-61
2022/09/22 12:10:49;;;;;;;2.92;1.30;;;18.80;84.20;;;;;;5091775;28;20221;-61
2022/09/22 12:13:25;;;;;;;4.82;2.22;;;18.70;84.60;;;;;;5091462;28;20051;-61
2022/09/22 12:16:17;;;;;;;6.68;2.40;;;18.60;83.70;;;;;;5088888;28;20105;-61
2022/09/22 12:18:59;;;;;;;5.40;2.15;;;18.50;82.10;;;;;;5087762;28;20111;-61
2022/09/22 12:21:53;;;;;;;4.35;1.92;;;18.50;84.10;;;;;;5093533;28;20417;-61
2022/09/22 12:24:19;;;;;;;6.15;1.70;;;18.60;83.90;;;;;;5083066;28;20082;-57
2022/09/22 12:26:47;;;;;;;7.32;2.40;;;18.80;85.20;;;;;;5079951;28;20280;-59
2022/09/22 12:29:15;;;;;;;4.45;1.52;;;19.00;84.40;;;;;;5075966;28;20040;-57
2022/09/22 12:31:44;;;;;;;5.22;1.77;;;19.10;81.50;;;;;;5086038;28;20036;-60
2022/09/22 12:34:23;;;;;;;3.97;2.38;;;19.10;80.90;;;;;;5085660;28;20494;-61
2022/09/22 12:36:58;;;;;;;4.43;2.25;;;19.00;80.40;;;;;;5095930;28;20115;-61
2022/09/22 12:39:29;;;;;;;4.93;1.73;;;18.80;81.20;;;;;;5100855;28;20188;-61
2022/09/22 12:42:13;;;;;;;3.97;2.83;;;18.70;80.70;;;;;;5085237;28;20032;-60
2022/09/22 12:44:51;;;;;;;9.10;4.68;;;18.50;81.00;;;;;;5086218;28;20039;-61
2022/09/22 12:47:21;;;;;;;7.22;3.55;;;18.60;83.30;;;;;;5067964;28;20040;-61
2022/09/22 12:49:50;;;;;;;2.47;2.22;;;18.60;82.90;;;;;;5088411;28;20491;-61
2022/09/22 12:52:56;;;;;;;7.90;2.92;;;18.70;82.20;;;;;;5079578;28;20067;-61
2022/09/22 12:55:28;;;;;;;4.25;3.22;;;18.80;82.80;;;;;;5086551;28;20444;-61
2022/09/22 12:58:00;;;;;;;4.38;2.45;;;19.00;83.20;;;;;;5069469;28;20045;-61
2022/09/22 13:00:42;;;;;;;9.25;2.53;;;19.00;81.10;;;;;;5094936;28;20028;-59
2022/09/22 13:03:25;;;;;;;3.80;2.15;;;19.00;79.80;;;;;;5089890;28;20036;-61
2022/09/22 13:06:21;;;;;;;5.78;1.70;;;19.10;81.10;;;;;;5099581;28;20054;-61
2022/09/22 13:08:52;;;;;;;8.63;2.05;;;19.10;80.00;;;;;;5069893;28;20040;-58
2022/09/22 13:11:19;;;;;;;6.50;2.28;;;19.20;81.70;;;;;;5108433;28;20043;-54
2022/09/22 13:13:47;;;;;;;6.75;2.05;;;19.20;79.20;;;;;;5110005;28;20043;-56
2022/09/22 13:16:15;;;;;;;8.70;2.10;;;19.30;79.90;;;;;;5093723;28;20040;-55
2022/09/22 13:18:57;;;;;;;5.50;2.08;;;19.40;79.30;;;;;;5089539;28;20054;-55
2022/09/22 13:21:31;;;;;;;3.55;1.75;;;19.40;79.20;;;;;;5090463;28;20043;-56
2022/09/22 13:23:59;;;;;;;10.68;1.88;;;19.50;79.30;;;;;;5095565;28;20035;-57
2022/09/22 13:26:35;;;;;;;2.58;1.10;;;19.50;79.60;;;;;;5110411;28;20043;-57
2022/09/22 13:29:06;;;;;;;4.55;0.77;;;19.60;76.60;;;;;;5084556;28;20027;-56
2022/09/22 13:31:47;;;;;;;6.72;1.27;;;19.50;76.70;;;;;;5098260;28;20039;-57
2022/09/22 13:34:29;;;;;;;4.50;1.77;;;19.30;75.90;;;;;;5101169;28;20036;-54
2022/09/22 13:37:07;;;;;;;5.45;1.15;;;19.10;74.90;;;;;;5089867;28;20039;-57
2022/09/22 13:39:39;;;;;;;7.22;1.25;;;19.10;76.20;;;;;;5090605;28;20039;-57